Terminal Aerodrome Forecast
Issued by NWS Twin Cities, MN

Home | Current Version | Previous Version | Text Only | Print | Product List | Glossary Off
Versions: 1 2 3 4 5 6 7 8 9 10 11 12 13 14 15 16 17

784
FTUS43 KMPX 211120
TAFEAU
TAF
KEAU 211120Z 2112/2212 09005KT P6SM BKN080
     FM211800 12010KT P6SM OVC025
      TEMPO 2118/2122 4SM -SHRA OVC015
     FM220300 VRB03KT P6SM BKN008
     FM220600 00000KT 1SM BR OVC003=

USA.gov is the U.S. government's official web portal to all federal, state and local government web resources and services.